Terminal Aerodrome Forecast
Issued by NWS

Current Version | Previous Version | Text Only | Print | Product List | Glossary Off
Versions: 1 2 3 4 5 6 7 8 9 10 11 12 13 14 15 16 17 18 19 20 21 22 23 24 25 26

109
FTUS41 KRLX 231309 AAA
TAFCKB
TAF AMD
KCKB 231309Z 2313/2412 00000KT P6SM SCT013
      TEMPO 2313/2315 BKN013
     FM231600 34004KT P6SM VCSH SCT040
     FM232000 35005KT 3SM -SHRA VCTS BKN040CB
     FM232200 00000KT P6SM SCT070
     FM240700 00000KT 4SM BR SCT045
     FM240800 00000KT 2SM BR FEW045=

USA.gov is the U.S. government's official web portal to all federal, state and local government web resources and services.